createdAt,value
2023-04-08T00:01:12.759Z,100896.92
2023-04-08T00:03:42.052Z,100901.38
2023-04-08T00:06:10.377Z,100901.77
2023-04-08T00:08:41.970Z,100902.23
2023-04-08T00:11:10.243Z,100902.53
2023-04-08T00:13:40.118Z,100903.64
2023-04-08T00:16:08.412Z,100902.20
2023-04-08T00:18:38.225Z,100904.13
2023-04-08T00:21:11.040Z,100904.91
2023-04-08T00:23:39.217Z,100906.37
2023-04-08T00:26:07.237Z,100906.52
2023-04-08T00:28:38.507Z,100903.97
2023-04-08T00:31:07.218Z,100902.79
2023-04-08T00:33:36.745Z,100904.61
2023-04-08T00:36:04.911Z,100903.89
2023-04-08T00:38:32.999Z,100900.29
2023-04-08T00:41:01.232Z,100899.05
2023-04-08T00:43:29.784Z,100898.94
2023-04-08T00:45:57.972Z,100902.00
2023-04-08T00:48:26.458Z,100905.14
2023-04-08T00:50:57.751Z,100905.50
2023-04-08T00:53:45.744Z,100902.86
2023-04-08T00:56:13.977Z,100897.94
2023-04-08T00:58:42.013Z,100898.87
2023-04-08T01:01:18.283Z,100900.14
2023-04-08T01:03:58.555Z,100896.64
2023-04-08T01:06:51.338Z,100896.02
2023-04-08T01:09:24.286Z,100897.86
2023-04-08T01:11:53.924Z,100898.52
2023-04-08T01:14:23.529Z,100897.85
2023-04-08T01:16:55.845Z,100892.70
2023-04-08T01:19:27.650Z,100893.45
2023-04-08T01:21:56.032Z,100891.36
2023-04-08T01:24:27.517Z,100891.59
2023-04-08T01:26:57.941Z,100894.67
2023-04-08T01:29:26.161Z,100897.45
2023-04-08T01:31:54.193Z,100897.86
2023-04-08T01:34:22.419Z,100899.27
2023-04-08T01:36:50.522Z,100898.64
2023-04-08T01:39:19.078Z,100898.98
2023-04-08T01:41:47.830Z,100899.77
2023-04-08T01:44:16.162Z,100898.27
2023-04-08T01:46:44.518Z,100896.42
2023-04-08T01:49:12.764Z,100896.04
2023-04-08T01:51:43.323Z,100894.50
2023-04-08T01:54:12.023Z,100893.04
2023-04-08T01:56:41.794Z,100894.27
2023-04-08T01:59:14.496Z,100891.09
2023-04-08T02:01:44.409Z,100891.08
2023-04-08T02:04:13.413Z,100890.14
2023-04-08T02:06:41.800Z,100888.04
2023-04-08T02:09:09.941Z,100886.69
2023-04-08T02:11:40.796Z,100886.36
2023-04-08T02:14:08.763Z,100885.34
2023-04-08T02:16:42.642Z,100885.29
2023-04-08T02:19:30.975Z,100885.67
2023-04-08T02:22:13.081Z,100887.51
2023-04-08T02:24:41.975Z,100889.90
2023-04-08T02:27:10.652Z,100886.67
2023-04-08T02:29:38.908Z,100888.91
2023-04-08T02:32:08.773Z,100889.40
2023-04-08T02:34:37.323Z,100893.17
2023-04-08T02:37:05.389Z,100893.91
2023-04-08T02:39:34.962Z,100893.26
2023-04-08T02:42:04.632Z,100891.52
2023-04-08T02:44:33.302Z,100886.73
2023-04-08T02:47:03.199Z,100889.02
2023-04-08T02:49:31.772Z,100887.49
2023-04-08T02:52:06.019Z,100886.59
2023-04-08T02:54:36.963Z,100884.83
2023-04-08T02:57:05.452Z,100885.11
2023-04-08T02:59:39.242Z,100885.56
2023-04-08T03:02:08.707Z,100885.74
2023-04-08T03:04:37.176Z,100885.79
2023-04-08T03:07:08.125Z,100885.41
2023-04-08T03:09:44.588Z,100890.27
2023-04-08T03:12:13.711Z,100890.35
2023-04-08T03:14:42.643Z,100893.36
2023-04-08T03:17:14.588Z,100890.02
2023-04-08T03:19:43.814Z,100890.05
2023-04-08T03:22:11.814Z,100893.92
2023-04-08T03:24:40.087Z,100893.70
2023-04-08T03:27:08.652Z,100897.39
2023-04-08T03:29:36.906Z,100904.87
2023-04-08T03:32:06.404Z,100907.07
2023-04-08T03:34:35.561Z,100907.66
2023-04-08T03:37:03.735Z,100910.14
2023-04-08T03:39:32.002Z,100907.09
2023-04-08T03:42:01.209Z,100911.14
2023-04-08T03:44:29.435Z,100908.14
2023-04-08T03:46:57.603Z,100912.86
2023-04-08T03:49:26.285Z,100913.75
2023-04-08T03:51:54.369Z,100915.08
2023-04-08T03:54:22.520Z,100915.80
2023-04-08T03:56:51.115Z,100914.48
2023-04-08T03:59:19.537Z,100912.69
2023-04-08T04:01:47.855Z,100912.66
2023-04-08T04:04:16.440Z,100911.98
2023-04-08T04:06:45.602Z,100912.67
2023-04-08T04:09:15.378Z,100916.49
2023-04-08T04:11:43.540Z,100915.92
2023-04-08T04:14:12.325Z,100916.76
2023-04-08T04:16:40.781Z,100916.14
2023-04-08T04:19:09.909Z,100916.08
2023-04-08T04:21:43.607Z,100921.21
2023-04-08T04:24:11.747Z,100922.68
2023-04-08T04:26:42.830Z,100921.74
2023-04-08T04:29:10.911Z,100923.08
2023-04-08T04:31:40.200Z,100922.34
2023-04-08T04:34:09.621Z,100922.89
2023-04-08T04:36:39.431Z,100930.12
2023-04-08T04:39:08.589Z,100935.18
2023-04-08T04:41:40.645Z,100937.67
2023-04-08T04:44:08.710Z,100936.64
2023-04-08T04:46:43.389Z,100937.48
2023-04-08T04:49:11.751Z,100941.73
2023-04-08T04:51:39.790Z,100941.79
2023-04-08T04:54:09.567Z,100940.78
2023-04-08T04:56:37.641Z,100941.91
2023-04-08T04:59:05.991Z,100952.83
2023-04-08T05:01:36.021Z,100957.05
2023-04-08T05:04:04.194Z,100956.25
2023-04-08T05:06:32.506Z,100949.71
2023-04-08T05:09:01.802Z,100952.80
2023-04-08T05:11:30.371Z,100952.71
2023-04-08T05:14:04.753Z,100956.13
2023-04-08T05:16:33.653Z,100955.70
2023-04-08T05:19:01.766Z,100960.36
2023-04-08T05:21:32.749Z,100960.92
2023-04-08T05:24:01.435Z,100961.64
2023-04-08T05:26:29.911Z,100962.22
2023-04-08T05:29:00.431Z,100960.95
2023-04-08T05:31:28.980Z,100956.90
2023-04-08T05:33:57.030Z,100956.90
2023-04-08T05:36:27.553Z,100956.69
2023-04-08T05:38:55.921Z,100955.98
2023-04-08T05:41:25.646Z,100961.15
2023-04-08T05:43:53.780Z,100963.40
2023-04-08T05:46:22.056Z,100964.99
2023-04-08T05:48:50.735Z,100966.50
2023-04-08T05:51:19.472Z,100967.05
2023-04-08T05:53:49.080Z,100968.00
2023-04-08T05:56:17.170Z,100965.73
2023-04-08T05:58:46.751Z,100966.44
2023-04-08T06:01:14.822Z,100968.25
2023-04-08T06:03:43.125Z,100970.64
2023-04-08T06:06:14.488Z,100972.94
2023-04-08T06:08:43.256Z,100976.25
2023-04-08T06:11:16.102Z,100977.79
2023-04-08T06:13:45.520Z,100978.89
2023-04-08T06:16:15.053Z,100981.16
2023-04-08T06:18:44.429Z,100982.14
2023-04-08T06:21:12.542Z,100982.42
2023-04-08T06:23:40.792Z,100979.45
2023-04-08T06:26:09.670Z,100975.89
2023-04-08T06:28:37.896Z,100977.05
2023-04-08T06:31:06.337Z,100977.77
2023-04-08T06:33:35.617Z,100978.80
2023-04-08T06:36:07.345Z,100981.69
2023-04-08T06:38:35.803Z,100984.09
2023-04-08T06:41:07.191Z,100985.73
2023-04-08T06:43:38.021Z,100989.59
2023-04-08T06:46:06.486Z,100991.98
2023-04-08T06:48:35.550Z,100993.54
2023-04-08T06:51:03.635Z,100995.73
2023-04-08T06:53:33.602Z,100994.35
2023-04-08T06:56:02.045Z,100997.55
2023-04-08T06:58:31.401Z,101000.63
2023-04-08T07:00:59.961Z,100995.81
2023-04-08T07:03:29.582Z,100996.62
2023-04-08T07:05:58.094Z,100996.67
2023-04-08T07:08:26.350Z,100998.13
2023-04-08T07:10:54.779Z,100999.88
2023-04-08T07:13:23.709Z,100999.92
2023-04-08T07:15:52.334Z,101004.33
2023-04-08T07:18:23.946Z,101007.41
2023-04-08T07:20:54.235Z,101007.30
2023-04-08T07:23:22.945Z,101012.52
2023-04-08T07:25:51.673Z,101011.91
2023-04-08T07:28:20.519Z,101016.95
2023-04-08T07:30:49.270Z,101014.71
2023-04-08T07:33:17.567Z,101011.33
2023-04-08T07:35:48.679Z,101008.83
2023-04-08T07:38:17.120Z,101010.68
2023-04-08T07:40:45.435Z,101011.67
2023-04-08T07:43:13.696Z,101007.98
2023-04-08T07:45:41.781Z,101009.19
2023-04-08T07:48:10.499Z,101010.08
2023-04-08T07:51:09.229Z,101015.67
2023-04-08T07:53:28.712Z,101010.28
2023-04-08T07:55:57.070Z,101005.88
2023-04-08T07:58:25.623Z,101003.05
2023-04-08T08:00:54.361Z,101005.20
2023-04-08T08:03:23.811Z,101002.41
2023-04-08T08:05:52.175Z,101000.40
2023-04-08T08:08:21.991Z,100999.80
2023-04-08T08:10:50.444Z,101000.06
2023-04-08T08:13:21.260Z,100998.59
2023-04-08T08:15:56.563Z,100996.66
2023-04-08T08:18:25.461Z,100996.05
2023-04-08T08:20:55.319Z,100994.48
2023-04-08T08:23:23.946Z,100994.77
2023-04-08T08:25:59.731Z,100996.04
2023-04-08T08:28:33.677Z,100996.59
2023-04-08T08:31:02.398Z,100996.20
2023-04-08T08:33:31.135Z,100996.58
2023-04-08T08:35:59.381Z,100995.45
2023-04-08T08:38:27.695Z,100992.18
2023-04-08T08:40:56.582Z,100992.73
2023-04-08T08:43:26.020Z,100991.43
2023-04-08T08:45:55.051Z,100992.10
2023-04-08T08:48:23.489Z,100993.88
2023-04-08T08:50:51.736Z,100993.71
2023-04-08T08:53:20.767Z,100993.21
2023-04-08T08:58:22.518Z,100995.60
2023-04-08T09:00:50.799Z,100994.67
2023-04-08T09:03:21.313Z,100993.60
2023-04-08T09:05:55.700Z,100995.45
2023-04-08T09:08:36.928Z,100998.23
2023-04-08T09:11:15.936Z,100997.23
2023-04-08T09:13:46.520Z,100997.52
2023-04-08T09:16:18.860Z,100993.94
2023-04-08T09:18:49.137Z,100991.19
2023-04-08T09:21:18.590Z,100990.63
2023-04-08T09:23:48.731Z,100988.77
2023-04-08T09:26:27.678Z,100987.83
2023-04-08T09:29:18.309Z,100991.13
2023-04-08T09:32:00.485Z,100991.14
2023-04-08T09:34:32.394Z,100991.77
2023-04-08T09:37:00.906Z,100992.48
2023-04-08T09:39:30.878Z,100993.95
2023-04-08T09:42:01.336Z,100996.71
2023-04-08T09:44:31.234Z,101002.40
2023-04-08T09:47:11.458Z,101002.24
2023-04-08T09:49:48.923Z,101004.88
2023-04-08T09:52:21.632Z,101004.17
2023-04-08T09:55:03.914Z,101000.02
2023-04-08T09:58:01.446Z,101002.64
2023-04-08T10:00:44.080Z,101006.09
2023-04-08T10:03:21.280Z,101004.16
2023-04-08T10:05:49.886Z,100999.80
2023-04-08T10:08:19.131Z,101001.63
2023-04-08T10:10:48.213Z,101001.11
2023-04-08T10:13:24.025Z,101000.36
2023-04-08T10:15:52.815Z,101001.65
2023-04-08T10:18:21.951Z,100998.33
2023-04-08T10:20:51.851Z,100999.16
2023-04-08T10:23:21.249Z,100997.47
2023-04-08T10:25:49.444Z,100997.00
2023-04-08T10:28:20.345Z,100996.46
2023-04-08T10:30:49.691Z,100999.11
2023-04-08T10:33:25.565Z,100999.13
2023-04-08T10:35:55.110Z,101000.55
2023-04-08T10:38:23.278Z,100999.53
2023-04-08T10:40:51.526Z,100998.05
2023-04-08T10:43:19.730Z,100997.91
2023-04-08T10:45:51.602Z,101001.42
2023-04-08T10:48:24.757Z,100998.19
2023-04-08T10:50:55.032Z,100993.52
2023-04-08T10:53:31.866Z,100993.15
2023-04-08T10:56:15.818Z,100995.17
2023-04-08T10:58:50.214Z,100992.06
2023-04-08T11:01:19.124Z,100989.63
2023-04-08T11:03:47.733Z,100988.95
2023-04-08T11:06:16.153Z,100983.42
2023-04-08T11:08:45.664Z,100981.64
2023-04-08T11:11:13.782Z,100978.97
2023-04-08T11:13:52.985Z,100980.27
2023-04-08T11:16:23.144Z,100981.02
2023-04-08T11:18:51.659Z,100982.38
2023-04-08T11:21:23.548Z,100982.89
2023-04-08T11:37:05.930Z,100974.29
2023-04-08T11:39:34.088Z,100968.13
2023-04-08T11:42:02.172Z,100966.98
2023-04-08T11:44:33.179Z,100962.73
2023-04-08T11:47:02.380Z,100956.56
2023-04-08T11:49:44.161Z,100953.80
2023-04-08T11:52:13.512Z,100952.41
2023-04-08T11:54:42.736Z,100950.41
2023-04-08T11:57:10.725Z,100946.95
2023-04-08T11:59:39.162Z,100942.55
2023-04-08T12:02:07.934Z,100942.85
2023-04-08T12:04:36.154Z,100943.56
2023-04-08T12:07:04.476Z,100944.67
2023-04-08T12:09:32.588Z,100943.16
2023-04-08T12:12:07.437Z,100939.77
2023-04-08T12:14:37.577Z,100929.66
2023-04-08T12:17:08.033Z,100925.32
2023-04-08T12:19:38.568Z,100927.89
2023-04-08T12:22:06.773Z,100920.85
2023-04-08T12:24:35.157Z,100921.88
2023-04-08T12:27:09.825Z,100923.45
2023-04-08T12:29:38.186Z,100916.62
2023-04-08T12:32:06.479Z,100912.11
2023-04-08T12:34:34.851Z,100909.04
2023-04-08T12:37:02.969Z,100902.83
2023-04-08T12:39:35.845Z,100899.56
2023-04-08T12:42:04.781Z,100898.55
2023-04-08T12:44:33.030Z,100899.14
2023-04-08T12:47:01.834Z,100902.89
2023-04-08T12:49:30.861Z,100907.37
2023-04-08T12:52:05.627Z,100910.51
2023-04-08T12:54:34.243Z,100916.64
2023-04-08T12:57:03.074Z,100913.55
2023-04-08T12:59:33.634Z,100906.33
2023-04-08T13:02:01.900Z,100914.77
2023-04-08T13:04:30.618Z,100917.89
2023-04-08T13:06:59.693Z,100922.08
2023-04-08T13:09:27.753Z,100924.60
2023-04-08T13:11:58.267Z,100923.86
2023-04-08T13:14:27.605Z,100923.45
2023-04-08T13:16:55.775Z,100924.05
2023-04-08T13:19:24.685Z,100925.65
2023-04-08T13:21:52.788Z,100926.67
2023-04-08T13:24:20.979Z,100927.50
2023-04-08T13:26:49.632Z,100931.42
2023-04-08T13:29:26.887Z,100933.67
2023-04-08T13:31:55.536Z,100939.19
2023-04-08T13:34:23.545Z,100941.41
2023-04-08T13:36:51.756Z,100945.56
2023-04-08T13:39:20.516Z,100947.48
2023-04-08T13:41:49.134Z,100944.71
2023-04-08T13:44:17.762Z,100941.89
2023-04-08T13:46:46.969Z,100942.72
2023-04-08T13:49:16.243Z,100940.61
2023-04-08T13:51:44.840Z,100937.22
2023-04-08T13:54:16.648Z,100937.48
2023-04-08T13:56:44.797Z,100939.35
2023-04-08T13:59:12.939Z,100929.05
2023-04-08T14:01:41.405Z,100928.86
2023-04-08T14:04:09.648Z,100929.54
2023-04-08T14:06:37.760Z,100923.63
2023-04-08T14:09:06.907Z,100915.83
2023-04-08T14:11:36.902Z,100913.98
2023-04-08T14:14:06.259Z,100911.92
2023-04-08T14:16:35.823Z,100906.48
2023-04-08T14:19:04.983Z,100905.98
2023-04-08T14:21:33.108Z,100907.27
2023-04-08T14:24:02.636Z,100907.92
2023-04-08T14:26:35.789Z,100906.02
2023-04-08T14:29:04.851Z,100908.55
2023-04-08T14:31:34.366Z,100904.40
2023-04-08T14:34:02.630Z,100902.48
2023-04-08T14:36:31.804Z,100902.80
2023-04-08T14:39:00.255Z,100900.44
2023-04-08T14:41:29.295Z,100902.19
2023-04-08T14:43:57.737Z,100898.78
2023-04-08T14:46:28.890Z,100900.86
2023-04-08T14:48:58.825Z,100906.26
2023-04-08T14:51:26.938Z,100910.27
2023-04-08T14:53:55.848Z,100912.04
2023-04-08T14:56:24.881Z,100913.46
2023-04-08T14:58:53.768Z,100912.21
2023-04-08T15:01:22.006Z,100908.39
2023-04-08T15:03:50.490Z,100909.99
2023-04-08T15:06:21.817Z,100912.87
2023-04-08T15:08:50.809Z,100915.33
2023-04-08T15:11:21.147Z,100916.08
2023-04-08T15:13:59.274Z,100923.15
2023-04-08T15:16:28.384Z,100923.86
2023-04-08T15:18:59.792Z,100925.82
2023-04-08T15:26:46.477Z,100926.15
2023-04-08T15:29:41.600Z,100926.02
2023-04-08T15:32:41.211Z,100929.06
2023-04-08T15:35:21.172Z,100939.92
2023-04-08T15:37:58.805Z,100941.35
2023-04-08T15:40:51.169Z,100942.64
2023-04-08T15:43:33.676Z,100938.52
2023-04-08T15:46:06.373Z,100934.64
2023-04-08T15:48:40.254Z,100940.25
2023-04-08T15:51:31.640Z,100942.17
2023-04-08T15:54:03.520Z,100944.87
2023-04-08T15:56:35.110Z,100940.70
2023-04-08T15:59:15.857Z,100942.95
2023-04-08T16:02:17.112Z,100954.98
2023-04-08T16:05:29.069Z,100957.45
2023-04-08T16:08:35.933Z,100958.92
2023-04-08T16:11:16.223Z,100965.75
2023-04-08T16:16:59.143Z,100987.44
2023-04-08T16:20:08.923Z,100988.66
2023-04-08T16:25:39.268Z,100992.35
2023-04-08T16:28:07.837Z,100996.58
2023-04-08T16:30:39.472Z,100993.44
2023-04-08T16:33:34.024Z,101001.65
2023-04-08T16:36:13.332Z,101002.08
2023-04-08T16:39:13.634Z,101009.38
2023-04-08T16:42:04.536Z,101007.95
2023-04-08T16:44:36.936Z,101005.87
2023-04-08T16:47:15.109Z,101008.73
2023-04-08T16:50:01.386Z,101010.64
2023-04-08T16:52:31.221Z,101014.68
2023-04-08T16:55:20.612Z,101013.87
2023-04-08T16:58:03.271Z,101012.61
2023-04-08T17:00:49.874Z,101009.28
2023-04-08T17:03:27.461Z,101006.04
2023-04-08T17:06:24.414Z,101011.34
2023-04-08T17:08:57.052Z,101014.00
2023-04-08T17:11:51.193Z,101018.92
2023-04-08T17:14:40.647Z,101020.46
2023-04-08T17:17:54.024Z,101023.20
2023-04-08T17:21:19.075Z,101026.26
2023-04-08T17:27:19.981Z,101032.78
2023-04-08T17:29:59.651Z,101035.40
2023-04-08T17:32:33.175Z,101038.98
2023-04-08T17:35:29.649Z,101039.34
2023-04-08T17:38:07.086Z,101041.35
2023-04-08T17:41:53.920Z,101047.27
2023-04-08T17:45:11.253Z,101049.05
2023-04-08T17:48:46.704Z,101056.00
2023-04-08T17:51:34.121Z,101057.48
2023-04-08T17:54:13.281Z,101059.16
2023-04-08T18:02:07.475Z,101066.17
2023-04-08T18:05:24.094Z,101068.55
2023-04-08T18:07:53.406Z,101073.80
2023-04-08T18:10:30.396Z,101079.88
2023-04-08T18:13:35.013Z,101084.89
2023-04-08T18:22:58.536Z,101094.39
2023-04-08T18:26:34.063Z,101090.60
2023-04-08T18:30:16.529Z,101091.89
2023-04-08T18:40:20.340Z,101095.18
2023-04-08T18:43:40.225Z,101093.30
2023-04-08T18:46:33.423Z,101089.70
2023-04-08T18:49:59.049Z,101088.94
2023-04-08T18:55:49.905Z,101093.44
2023-04-08T18:59:08.017Z,101089.80
2023-04-08T19:02:09.012Z,101089.70
2023-04-08T19:04:58.264Z,101087.89
2023-04-08T19:07:34.673Z,101082.32
2023-04-08T19:10:16.833Z,101081.95
2023-04-08T19:12:51.663Z,101080.55
2023-04-08T19:15:30.347Z,101082.07
2023-04-08T19:20:55.889Z,101076.80
2023-04-08T19:24:01.331Z,101075.50
2023-04-08T19:30:46.721Z,101071.93
2023-04-08T19:37:45.738Z,101066.84
2023-04-08T19:53:40.145Z,101054.83
2023-04-08T20:05:20.688Z,101064.35
2023-04-08T20:11:48.144Z,101060.98
2023-04-08T20:14:29.663Z,101058.21
2023-04-08T20:17:34.597Z,101065.26
2023-04-08T20:20:24.277Z,101070.55
2023-04-08T20:23:01.438Z,101068.98
2023-04-08T20:25:43.832Z,101066.56
2023-04-08T20:29:09.969Z,101062.77
2023-04-08T20:32:26.115Z,101065.48
2023-04-08T20:35:07.972Z,101062.17
2023-04-08T20:38:24.259Z,101065.56
2023-04-08T20:41:12.846Z,101060.98
2023-04-08T20:43:51.333Z,101057.13
2023-04-08T20:46:55.090Z,101059.45
2023-04-08T20:50:09.191Z,101057.33
2023-04-08T20:52:53.981Z,101059.23
2023-04-08T20:55:33.463Z,101056.79
2023-04-08T20:58:20.016Z,101054.83
2023-04-08T21:08:12.439Z,101050.91
2023-04-08T21:10:51.549Z,101049.14
2023-04-08T21:10:58.152Z,101055.10
2023-04-08T21:24:41.602Z,101051.13
2023-04-08T21:27:51.082Z,101052.52
2023-04-08T21:35:33.366Z,101065.49
2023-04-08T21:38:55.981Z,101063.64
2023-04-08T21:42:53.571Z,101064.40
2023-04-08T21:45:53.830Z,101063.82
2023-04-08T21:48:45.652Z,101062.41
2023-04-08T21:51:26.060Z,101060.75
2023-04-08T22:01:57.344Z,101064.45
2023-04-08T22:04:55.506Z,101066.74
2023-04-08T22:08:08.963Z,101068.98
2023-04-08T22:11:14.016Z,101067.98
2023-04-08T22:14:38.569Z,101070.73
2023-04-08T22:18:05.182Z,101070.36
2023-04-08T22:29:27.557Z,101062.25
2023-04-08T22:36:39.980Z,101067.89
2023-04-08T22:39:42.127Z,101067.83
2023-04-08T22:42:58.494Z,101064.73
2023-04-08T22:50:24.686Z,101064.87
2023-04-08T22:54:33.092Z,101060.84
2023-04-08T23:01:24.069Z,101056.04
2023-04-08T23:04:20.705Z,101053.64
2023-04-08T23:08:05.494Z,101050.20
2023-04-08T23:20:40.704Z,101048.06
2023-04-08T23:24:33.025Z,101052.62
2023-04-08T23:27:50.235Z,101049.02
2023-04-08T23:44:35.164Z,101048.48
2023-04-08T23:59:04.668Z,101035.80
